sensor_id;sensor_type;location;lat;lon;timestamp;P1;durP1;ratioP1;P2;durP2;ratioP2
44732;SDS011;30460;50.836;4.390;2023-03-13T06:13:13;6.83;;;2.77;;
44732;SDS011;30460;50.836;4.390;2023-03-13T06:15:39;7.83;;;2.93;;
44732;SDS011;30460;50.836;4.390;2023-03-13T06:18:05;2.53;;;1.60;;
44732;SDS011;30460;50.836;4.390;2023-03-13T06:20:31;5.60;;;2.30;;
44732;SDS011;30460;50.836;4.390;2023-03-13T06:22:57;10.27;;;3.90;;
44732;SDS011;30460;50.836;4.390;2023-03-13T06:25:23;6.20;;;3.20;;
44732;SDS011;30460;50.836;4.390;2023-03-13T06:27:50;9.53;;;3.47;;
44732;SDS011;30460;50.836;4.390;2023-03-13T06:30:16;5.50;;;2.13;;
44732;SDS011;30460;50.836;4.390;2023-03-13T06:32:42;5.23;;;2.93;;
44732;SDS011;30460;50.836;4.390;2023-03-13T06:35:08;3.10;;;1.97;;
44732;SDS011;30460;50.836;4.390;2023-03-13T06:37:34;6.77;;;2.70;;
44732;SDS011;30460;50.836;4.390;2023-03-13T06:40:00;7.30;;;3.60;;
44732;SDS011;30460;50.836;4.390;2023-03-13T06:42:27;9.23;;;3.20;;
44732;SDS011;30460;50.836;4.390;2023-03-13T06:44:53;7.23;;;2.77;;
44732;SDS011;30460;50.836;4.390;2023-03-13T06:47:19;6.60;;;2.30;;
44732;SDS011;30460;50.836;4.390;2023-03-13T06:49:47;13.97;;;3.60;;
44732;SDS011;30460;50.836;4.390;2023-03-13T06:52:14;10.47;;;3.40;;
44732;SDS011;30460;50.836;4.390;2023-03-13T06:54:40;8.13;;;3.73;;
44732;SDS011;30460;50.836;4.390;2023-03-13T06:57:06;9.40;;;3.80;;
44732;SDS011;30460;50.836;4.390;2023-03-13T06:59:32;6.43;;;2.40;;
44732;SDS011;30460;50.836;4.390;2023-03-13T07:01:58;7.47;;;2.83;;
44732;SDS011;30460;50.836;4.390;2023-03-13T07:04:24;10.10;;;3.67;;
44732;SDS011;30460;50.836;4.390;2023-03-13T07:06:50;9.37;;;2.93;;
44732;SDS011;30460;50.836;4.390;2023-03-13T07:09:16;9.93;;;3.73;;
44732;SDS011;30460;50.836;4.390;2023-03-13T07:11:44;8.53;;;4.00;;
44732;SDS011;30460;50.836;4.390;2023-03-13T07:14:10;10.50;;;4.53;;
44732;SDS011;30460;50.836;4.390;2023-03-13T07:16:37;9.50;;;3.50;;
44732;SDS011;30460;50.836;4.390;2023-03-13T07:19:03;7.30;;;3.50;;
44732;SDS011;30460;50.836;4.390;2023-03-13T07:21:29;6.93;;;3.07;;
44732;SDS011;30460;50.836;4.390;2023-03-13T07:23:55;8.17;;;3.80;;
44732;SDS011;30460;50.836;4.390;2023-03-13T07:26:21;12.30;;;4.17;;
44732;SDS011;30460;50.836;4.390;2023-03-13T07:28:47;9.73;;;3.27;;
44732;SDS011;30460;50.836;4.390;2023-03-13T07:31:14;8.93;;;3.80;;
44732;SDS011;30460;50.836;4.390;2023-03-13T07:33:41;6.80;;;2.33;;
44732;SDS011;30460;50.836;4.390;2023-03-13T07:36:07;8.87;;;3.50;;
44732;SDS011;30460;50.836;4.390;2023-03-13T07:38:34;10.37;;;3.83;;
44732;SDS011;30460;50.836;4.390;2023-03-13T07:41:00;8.63;;;4.07;;
44732;SDS011;30460;50.836;4.390;2023-03-13T07:43:26;6.67;;;3.60;;
44732;SDS011;30460;50.836;4.390;2023-03-13T07:45:54;11.60;;;4.00;;
44732;SDS011;30460;50.836;4.390;2023-03-13T07:48:21;8.00;;;3.50;;
44732;SDS011;30460;50.836;4.390;2023-03-13T07:50:48;6.77;;;3.40;;
44732;SDS011;30460;50.836;4.390;2023-03-13T07:53:14;5.73;;;3.80;;
44732;SDS011;30460;50.836;4.390;2023-03-13T07:55:57;7.13;;;3.20;;
44732;SDS011;30460;50.836;4.390;2023-03-13T07:58:23;4.60;;;3.43;;
44732;SDS011;30460;50.836;4.390;2023-03-13T08:00:50;8.47;;;4.17;;
44732;SDS011;30460;50.836;4.390;2023-03-13T08:03:16;10.80;;;4.30;;
44732;SDS011;30460;50.836;4.390;2023-03-13T08:05:43;6.80;;;4.00;;
44732;SDS011;30460;50.836;4.390;2023-03-13T08:08:09;6.90;;;3.33;;
44732;SDS011;30460;50.836;4.390;2023-03-13T08:10:35;8.90;;;3.73;;
44732;SDS011;30460;50.836;4.390;2023-03-13T08:13:04;8.43;;;4.00;;
44732;SDS011;30460;50.836;4.390;2023-03-13T08:15:30;9.03;;;3.70;;
44732;SDS011;30460;50.836;4.390;2023-03-13T08:17:59;7.77;;;4.13;;
44732;SDS011;30460;50.836;4.390;2023-03-13T08:20:25;8.53;;;3.80;;
44732;SDS011;30460;50.836;4.390;2023-03-13T08:22:51;6.23;;;3.30;;
44732;SDS011;30460;50.836;4.390;2023-03-13T08:25:19;5.70;;;3.20;;
44732;SDS011;30460;50.836;4.390;2023-03-13T08:27:45;7.00;;;3.00;;
44732;SDS011;30460;50.836;4.390;2023-03-13T08:30:11;7.10;;;3.17;;
44732;SDS011;30460;50.836;4.390;2023-03-13T08:32:37;5.87;;;4.00;;
44732;SDS011;30460;50.836;4.390;2023-03-13T08:35:03;9.07;;;3.80;;
44732;SDS011;30460;50.836;4.390;2023-03-13T08:37:30;9.47;;;3.83;;
44732;SDS011;30460;50.836;4.390;2023-03-13T08:39:56;7.70;;;3.67;;
44732;SDS011;30460;50.836;4.390;2023-03-13T08:42:23;5.67;;;3.10;;
44732;SDS011;30460;50.836;4.390;2023-03-13T08:44:53;5.53;;;3.80;;
44732;SDS011;30460;50.836;4.390;2023-03-13T08:47:19;9.80;;;3.70;;
44732;SDS011;30460;50.836;4.390;2023-03-13T08:49:45;7.07;;;3.50;;
44732;SDS011;30460;50.836;4.390;2023-03-13T08:52:11;8.77;;;3.40;;
44732;SDS011;30460;50.836;4.390;2023-03-13T08:54:37;8.13;;;3.53;;
44732;SDS011;30460;50.836;4.390;2023-03-13T08:57:03;6.27;;;3.47;;
44732;SDS011;30460;50.836;4.390;2023-03-13T08:59:29;6.97;;;3.23;;
44732;SDS011;30460;50.836;4.390;2023-03-13T09:01:56;4.03;;;2.30;;
44732;SDS011;30460;50.836;4.390;2023-03-13T09:04:22;4.73;;;2.40;;
44732;SDS011;30460;50.836;4.390;2023-03-13T09:06:48;5.70;;;3.10;;
44732;SDS011;30460;50.836;4.390;2023-03-13T09:09:15;6.93;;;2.80;;
44732;SDS011;30460;50.836;4.390;2023-03-13T09:11:41;5.53;;;3.03;;
44732;SDS011;30460;50.836;4.390;2023-03-13T09:14:07;4.87;;;2.90;;
44732;SDS011;30460;50.836;4.390;2023-03-13T09:16:33;7.00;;;3.07;;
44732;SDS011;30460;50.836;4.390;2023-03-13T09:18:59;5.67;;;2.30;;
44732;SDS011;30460;50.836;4.390;2023-03-13T09:21:28;5.67;;;2.63;;
44732;SDS011;30460;50.836;4.390;2023-03-13T09:23:55;2.63;;;1.30;;
44732;SDS011;30460;50.836;4.390;2023-03-13T09:26:21;6.77;;;2.30;;
44732;SDS011;30460;50.836;4.390;2023-03-13T09:28:47;5.30;;;2.73;;
44732;SDS011;30460;50.836;4.390;2023-03-13T09:31:16;5.67;;;3.50;;
44732;SDS011;30460;50.836;4.390;2023-03-13T09:33:43;3.40;;;2.50;;
44732;SDS011;30460;50.836;4.390;2023-03-13T09:36:12;5.97;;;2.50;;
44732;SDS011;30460;50.836;4.390;2023-03-13T09:38:38;3.00;;;2.20;;
44732;SDS011;30460;50.836;4.390;2023-03-13T09:46:26;5.27;;;2.47;;
44732;SDS011;30460;50.836;4.390;2023-03-13T09:48:55;3.37;;;2.43;;
44732;SDS011;30460;50.836;4.390;2023-03-13T09:51:27;4.80;;;2.63;;
44732;SDS011;30460;50.836;4.390;2023-03-13T09:53:58;4.30;;;1.93;;
44732;SDS011;30460;50.836;4.390;2023-03-13T09:56:33;6.80;;;2.37;;
44732;SDS011;30460;50.836;4.390;2023-03-13T09:59:08;4.57;;;2.43;;
44732;SDS011;30460;50.836;4.390;2023-03-13T10:01:36;2.50;;;1.67;;
44732;SDS011;30460;50.836;4.390;2023-03-13T10:04:08;5.00;;;2.10;;
44732;SDS011;30460;50.836;4.390;2023-03-13T10:06:39;5.87;;;2.63;;
44732;SDS011;30460;50.836;4.390;2023-03-13T10:09:48;9.70;;;5.50;;
44732;SDS011;30460;50.836;4.390;2023-03-13T10:14:27;2.87;;;1.90;;
44732;SDS011;30460;50.836;4.390;2023-03-13T10:19:38;2.27;;;1.60;;
44732;SDS011;30460;50.836;4.390;2023-03-13T10:22:17;2.10;;;1.90;;
44732;SDS011;30460;50.836;4.390;2023-03-13T10:24:50;6.33;;;2.63;;
44732;SDS011;30460;50.836;4.390;2023-03-13T10:27:19;4.37;;;2.27;;
44732;SDS011;30460;50.836;4.390;2023-03-13T10:29:45;2.97;;;2.00;;
44732;SDS011;30460;50.836;4.390;2023-03-13T10:32:12;3.70;;;2.37;;
44732;SDS011;30460;50.836;4.390;2023-03-13T10:34:54;7.90;;;2.80;;
44732;SDS011;30460;50.836;4.390;2023-03-13T10:37:27;5.07;;;2.37;;
44732;SDS011;30460;50.836;4.390;2023-03-13T10:39:53;3.20;;;2.23;;
44732;SDS011;30460;50.836;4.390;2023-03-13T10:42:25;4.57;;;2.13;;
44732;SDS011;30460;50.836;4.390;2023-03-13T10:44:57;2.07;;;1.43;;
44732;SDS011;30460;50.836;4.390;2023-03-13T10:47:23;4.40;;;2.30;;
44732;SDS011;30460;50.836;4.390;2023-03-13T10:49:50;4.27;;;2.17;;
44732;SDS011;30460;50.836;4.390;2023-03-13T10:52:27;3.13;;;2.03;;
44732;SDS011;30460;50.836;4.390;2023-03-13T10:55:05;4.63;;;2.07;;
44732;SDS011;30460;50.836;4.390;2023-03-13T10:57:35;4.17;;;2.30;;
44732;SDS011;30460;50.836;4.390;2023-03-13T11:00:28;5.70;;;2.23;;
44732;SDS011;30460;50.836;4.390;2023-03-13T11:02:51;3.87;;;1.63;;
44732;SDS011;30460;50.836;4.390;2023-03-13T11:07:51;2.70;;;1.80;;
44732;SDS011;30460;50.836;4.390;2023-03-13T11:10:28;6.57;;;2.23;;
44732;SDS011;30460;50.836;4.390;2023-03-13T11:12:56;2.87;;;1.97;;
44732;SDS011;30460;50.836;4.390;2023-03-13T11:18:37;6.60;;;2.37;;
44732;SDS011;30460;50.836;4.390;2023-03-13T11:20:44;3.93;;;1.90;;
44732;SDS011;30460;50.836;4.390;2023-03-13T11:25:54;5.70;;;2.00;;
44732;SDS011;30460;50.836;4.390;2023-03-13T11:31:08;3.63;;;1.67;;
44732;SDS011;30460;50.836;4.390;2023-03-13T11:46:48;4.07;;;1.90;;
44732;SDS011;30460;50.836;4.390;2023-03-13T11:54:42;2.20;;;1.73;;
44732;SDS011;30460;50.836;4.390;2023-03-13T11:57:20;2.27;;;1.80;;
44732;SDS011;30460;50.836;4.390;2023-03-13T12:02:32;2.63;;;1.53;;
44732;SDS011;30460;50.836;4.390;2023-03-13T12:05:00;0.77;;;0.77;;
44732;SDS011;30460;50.836;4.390;2023-03-13T12:07:30;2.57;;;1.80;;
44732;SDS011;30460;50.836;4.390;2023-03-13T12:15:27;2.20;;;1.63;;
44732;SDS011;30460;50.836;4.390;2023-03-13T12:17:56;2.53;;;1.50;;
44732;SDS011;30460;50.836;4.390;2023-03-13T12:20:43;4.73;;;1.73;;
44732;SDS011;30460;50.836;4.390;2023-03-13T12:25:45;3.73;;;1.70;;
44732;SDS011;30460;50.836;4.390;2023-03-13T12:28:22;2.67;;;1.70;;
44732;SDS011;30460;50.836;4.390;2023-03-13T12:30:51;3.00;;;1.70;;
44732;SDS011;30460;50.836;4.390;2023-03-13T12:38:49;1.43;;;1.13;;
44732;SDS011;30460;50.836;4.390;2023-03-13T12:41:29;2.23;;;1.97;;
44732;SDS011;30460;50.836;4.390;2023-03-13T12:43:56;4.47;;;1.67;;
44732;SDS011;30460;50.836;4.390;2023-03-13T12:49:13;2.97;;;1.50;;
44732;SDS011;30460;50.836;4.390;2023-03-13T12:51:53;3.40;;;1.50;;
44732;SDS011;30460;50.836;4.390;2023-03-13T12:54:27;4.20;;;1.70;;
44732;SDS011;30460;50.836;4.390;2023-03-13T12:59:59;3.53;;;1.60;;
44732;SDS011;30460;50.836;4.390;2023-03-13T13:02:29;1.83;;;1.50;;
44732;SDS011;30460;50.836;4.390;2023-03-13T13:04:58;3.33;;;1.30;;
44732;SDS011;30460;50.836;4.390;2023-03-13T13:07:29;4.30;;;1.77;;
44732;SDS011;30460;50.836;4.390;2023-03-13T13:12:29;3.50;;;1.80;;
44732;SDS011;30460;50.836;4.390;2023-03-13T13:17:24;3.07;;;1.33;;
44732;SDS011;30460;50.836;4.390;2023-03-13T13:19:51;1.40;;;1.30;;
44732;SDS011;30460;50.836;4.390;2023-03-13T13:37:42;4.20;;;1.60;;
44732;SDS011;30460;50.836;4.390;2023-03-13T13:42:56;4.30;;;1.60;;
44732;SDS011;30460;50.836;4.390;2023-03-13T13:45:24;3.20;;;1.50;;
44732;SDS011;30460;50.836;4.390;2023-03-13T13:47:52;6.30;;;2.00;;
44732;SDS011;30460;50.836;4.390;2023-03-13T13:50:36;5.63;;;1.93;;
44732;SDS011;30460;50.836;4.390;2023-03-13T13:55:47;8.97;;;1.70;;
44732;SDS011;30460;50.836;4.390;2023-03-13T13:58:21;2.83;;;1.40;;
44732;SDS011;30460;50.836;4.390;2023-03-13T14:00:58;5.37;;;1.83;;
44732;SDS011;30460;50.836;4.390;2023-03-13T14:03:26;7.00;;;1.80;;
44732;SDS011;30460;50.836;4.390;2023-03-13T14:05:55;7.30;;;2.03;;
44732;SDS011;30460;50.836;4.390;2023-03-13T14:08:28;3.63;;;1.50;;
44732;SDS011;30460;50.836;4.390;2023-03-13T14:13:39;6.73;;;1.80;;
44732;SDS011;30460;50.836;4.390;2023-03-13T14:16:13;2.37;;;1.40;;
44732;SDS011;30460;50.836;4.390;2023-03-13T14:18:44;5.37;;;1.70;;
44732;SDS011;30460;50.836;4.390;2023-03-13T14:21:10;7.20;;;1.90;;
44732;SDS011;30460;50.836;4.390;2023-03-13T14:23:44;7.07;;;1.87;;
44732;SDS011;30460;50.836;4.390;2023-03-13T14:28:47;2.83;;;1.70;;
44732;SDS011;30460;50.836;4.390;2023-03-13T14:34:10;7.17;;;2.13;;
44732;SDS011;30460;50.836;4.390;2023-03-13T14:39:34;4.83;;;1.87;;
44732;SDS011;30460;50.836;4.390;2023-03-13T14:42:02;6.67;;;2.17;;
44732;SDS011;30460;50.836;4.390;2023-03-13T14:44:29;6.90;;;2.30;;
44732;SDS011;30460;50.836;4.390;2023-03-13T14:46:57;3.53;;;1.53;;
44732;SDS011;30460;50.836;4.390;2023-03-13T14:49:24;5.63;;;1.93;;
44732;SDS011;30460;50.836;4.390;2023-03-13T14:52:04;7.03;;;2.00;;
44732;SDS011;30460;50.836;4.390;2023-03-13T14:54:32;4.57;;;1.73;;
44732;SDS011;30460;50.836;4.390;2023-03-13T14:59:31;4.10;;;1.70;;
44732;SDS011;30460;50.836;4.390;2023-03-13T15:02:02;1.77;;;1.40;;
44732;SDS011;30460;50.836;4.390;2023-03-13T15:07:13;6.00;;;1.97;;
44732;SDS011;30460;50.836;4.390;2023-03-13T15:09:46;4.53;;;2.33;;
44732;SDS011;30460;50.836;4.390;2023-03-13T15:12:23;6.33;;;2.20;;
44732;SDS011;30460;50.836;4.390;2023-03-13T15:14:52;5.70;;;1.87;;
44732;SDS011;30460;50.836;4.390;2023-03-13T15:19:54;5.53;;;1.67;;
44732;SDS011;30460;50.836;4.390;2023-03-13T15:22:26;6.30;;;1.77;;
44732;SDS011;30460;50.836;4.390;2023-03-13T15:24:52;4.07;;;1.30;;
44732;SDS011;30460;50.836;4.390;2023-03-13T15:27:20;4.30;;;1.93;;
44732;SDS011;30460;50.836;4.390;2023-03-13T15:29:46;4.63;;;2.40;;
44732;SDS011;30460;50.836;4.390;2023-03-13T15:32:19;5.43;;;1.87;;
44732;SDS011;30460;50.836;4.390;2023-03-13T15:34:47;5.67;;;2.00;;
44732;SDS011;30460;50.836;4.390;2023-03-13T15:37:14;7.70;;;2.47;;
44732;SDS011;30460;50.836;4.390;2023-03-13T15:39:42;9.60;;;2.87;;
44732;SDS011;30460;50.836;4.390;2023-03-13T15:42:12;7.50;;;2.20;;
44732;SDS011;30460;50.836;4.390;2023-03-13T15:44:38;6.20;;;2.27;;
44732;SDS011;30460;50.836;4.390;2023-03-13T15:47:04;8.37;;;2.60;;
44732;SDS011;30460;50.836;4.390;2023-03-13T15:49:32;9.00;;;2.40;;
44732;SDS011;30460;50.836;4.390;2023-03-13T15:51:58;8.33;;;2.40;;
44732;SDS011;30460;50.836;4.390;2023-03-13T15:54:24;6.57;;;2.17;;
44732;SDS011;30460;50.836;4.390;2023-03-13T15:56:52;10.13;;;3.20;;
44732;SDS011;30460;50.836;4.390;2023-03-13T15:59:18;6.30;;;2.73;;
44732;SDS011;30460;50.836;4.390;2023-03-13T16:01:44;10.57;;;2.60;;
44732;SDS011;30460;50.836;4.390;2023-03-13T16:04:12;7.87;;;2.47;;
44732;SDS011;30460;50.836;4.390;2023-03-13T16:06:39;7.30;;;2.27;;
44732;SDS011;30460;50.836;4.390;2023-03-13T16:09:05;4.17;;;1.80;;
44732;SDS011;30460;50.836;4.390;2023-03-13T16:11:32;6.67;;;2.10;;
44732;SDS011;30460;50.836;4.390;2023-03-13T16:13:58;7.33;;;2.07;;
44732;SDS011;30460;50.836;4.390;2023-03-13T16:16:25;6.60;;;2.60;;
44732;SDS011;30460;50.836;4.390;2023-03-13T16:18:55;6.40;;;3.00;;
44732;SDS011;30460;50.836;4.390;2023-03-13T16:21:23;8.50;;;2.67;;
44732;SDS011;30460;50.836;4.390;2023-03-13T16:23:49;7.50;;;1.87;;
44732;SDS011;30460;50.836;4.390;2023-03-13T16:26:20;6.73;;;2.27;;
44732;SDS011;30460;50.836;4.390;2023-03-13T16:28:47;9.07;;;2.90;;
44732;SDS011;30460;50.836;4.390;2023-03-13T16:31:19;5.20;;;2.37;;
44732;SDS011;30460;50.836;4.390;2023-03-13T16:33:54;7.93;;;2.70;;
44732;SDS011;30460;50.836;4.390;2023-03-13T16:36:21;8.10;;;3.10;;
44732;SDS011;30460;50.836;4.390;2023-03-13T16:38:48;7.60;;;2.27;;
44732;SDS011;30460;50.836;4.390;2023-03-13T16:41:15;11.27;;;2.97;;
44732;SDS011;30460;50.836;4.390;2023-03-13T16:43:42;8.00;;;2.70;;
44732;SDS011;30460;50.836;4.390;2023-03-13T16:46:10;3.43;;;1.40;;
44732;SDS011;30460;50.836;4.390;2023-03-13T16:48:38;9.00;;;2.63;;
44732;SDS011;30460;50.836;4.390;2023-03-13T16:51:04;6.37;;;2.30;;
44732;SDS011;30460;50.836;4.390;2023-03-13T16:53:30;11.10;;;2.43;;
44732;SDS011;30460;50.836;4.390;2023-03-13T16:55:59;7.87;;;2.57;;
44732;SDS011;30460;50.836;4.390;2023-03-13T16:58:28;9.53;;;2.30;;
44732;SDS011;30460;50.836;4.390;2023-03-13T17:00:54;2.33;;;1.80;;
44732;SDS011;30460;50.836;4.390;2023-03-13T17:03:20;8.20;;;4.50;;
44732;SDS011;30460;50.836;4.390;2023-03-13T17:05:47;10.80;;;4.77;;
44732;SDS011;30460;50.836;4.390;2023-03-13T17:08:13;7.90;;;2.37;;
44732;SDS011;30460;50.836;4.390;2023-03-13T17:10:39;9.53;;;3.43;;
44732;SDS011;30460;50.836;4.390;2023-03-13T17:13:05;9.63;;;2.80;;
44732;SDS011;30460;50.836;4.390;2023-03-13T17:15:31;10.57;;;3.17;;
44732;SDS011;30460;50.836;4.390;2023-03-13T17:18:05;8.27;;;2.70;;
44732;SDS011;30460;50.836;4.390;2023-03-13T17:20:36;9.87;;;2.90;;
44732;SDS011;30460;50.836;4.390;2023-03-13T17:23:02;11.50;;;3.27;;
44732;SDS011;30460;50.836;4.390;2023-03-13T17:25:28;9.20;;;2.70;;
44732;SDS011;30460;50.836;4.390;2023-03-13T17:27:55;9.33;;;2.83;;
44732;SDS011;30460;50.836;4.390;2023-03-13T17:30:25;10.07;;;2.60;;
44732;SDS011;30460;50.836;4.390;2023-03-13T17:32:54;9.97;;;3.90;;
44732;SDS011;30460;50.836;4.390;2023-03-13T17:35:20;6.07;;;2.97;;
44732;SDS011;30460;50.836;4.390;2023-03-13T17:37:48;8.20;;;2.70;;
44732;SDS011;30460;50.836;4.390;2023-03-13T17:42:46;10.40;;;3.00;;
44732;SDS011;30460;50.836;4.390;2023-03-13T17:45:13;6.97;;;2.53;;
44732;SDS011;30460;50.836;4.390;2023-03-13T17:47:43;6.87;;;3.00;;
44732;SDS011;30460;50.836;4.390;2023-03-13T17:50:19;15.37;;;5.30;;
44732;SDS011;30460;50.836;4.390;2023-03-13T17:52:45;11.23;;;4.47;;
44732;SDS011;30460;50.836;4.390;2023-03-13T17:55:11;10.23;;;3.73;;
44732;SDS011;30460;50.836;4.390;2023-03-13T17:57:38;8.17;;;3.17;;
44732;SDS011;30460;50.836;4.390;2023-03-13T18:00:11;6.53;;;3.23;;
44732;SDS011;30460;50.836;4.390;2023-03-13T18:02:39;9.77;;;2.80;;
44732;SDS011;30460;50.836;4.390;2023-03-13T18:05:05;8.77;;;3.10;;
44732;SDS011;30460;50.836;4.390;2023-03-13T18:07:31;10.03;;;3.73;;
44732;SDS011;30460;50.836;4.390;2023-03-13T18:09:57;5.97;;;3.00;;
44732;SDS011;30460;50.836;4.390;2023-03-13T18:12:23;10.13;;;3.03;;
44732;SDS011;30460;50.836;4.390;2023-03-13T18:14:49;7.70;;;2.93;;
44732;SDS011;30460;50.836;4.390;2023-03-13T18:17:19;10.27;;;3.60;;
44732;SDS011;30460;50.836;4.390;2023-03-13T18:19:46;7.40;;;3.33;;
44732;SDS011;30460;50.836;4.390;2023-03-13T18:22:17;11.07;;;2.80;;
44732;SDS011;30460;50.836;4.390;2023-03-13T18:24:45;8.63;;;3.20;;
44732;SDS011;30460;50.836;4.390;2023-03-13T18:27:22;10.73;;;3.83;;
44732;SDS011;30460;50.836;4.390;2023-03-13T18:29:48;8.07;;;3.30;;
44732;SDS011;30460;50.836;4.390;2023-03-13T18:32:16;8.03;;;2.63;;
44732;SDS011;30460;50.836;4.390;2023-03-13T18:34:42;8.20;;;3.03;;
44732;SDS011;30460;50.836;4.390;2023-03-13T18:37:28;6.70;;;2.97;;
44732;SDS011;30460;50.836;4.390;2023-03-13T18:39:55;7.97;;;2.90;;
44732;SDS011;30460;50.836;4.390;2023-03-13T18:42:22;7.47;;;2.87;;
44732;SDS011;30460;50.836;4.390;2023-03-13T18:47:40;6.83;;;2.60;;
44732;SDS011;30460;50.836;4.390;2023-03-13T18:50:14;7.37;;;3.20;;
44732;SDS011;30460;50.836;4.390;2023-03-13T18:52:42;6.20;;;2.20;;
44732;SDS011;30460;50.836;4.390;2023-03-13T18:55:08;10.30;;;3.17;;
44732;SDS011;30460;50.836;4.390;2023-03-13T18:57:34;6.27;;;2.20;;
44732;SDS011;30460;50.836;4.390;2023-03-13T19:00:00;7.40;;;2.80;;
44732;SDS011;30460;50.836;4.390;2023-03-13T19:02:27;7.03;;;3.10;;
44732;SDS011;30460;50.836;4.390;2023-03-13T19:04:53;6.50;;;2.97;;
44732;SDS011;30460;50.836;4.390;2023-03-13T19:07:22;7.63;;;2.73;;
44732;SDS011;30460;50.836;4.390;2023-03-13T19:09:50;8.07;;;2.60;;
44732;SDS011;30460;50.836;4.390;2023-03-13T19:12:16;5.47;;;2.37;;
44732;SDS011;30460;50.836;4.390;2023-03-13T19:14:42;6.03;;;2.50;;
44732;SDS011;30460;50.836;4.390;2023-03-13T19:17:24;5.27;;;2.23;;
44732;SDS011;30460;50.836;4.390;2023-03-13T19:19:53;6.73;;;2.60;;
44732;SDS011;30460;50.836;4.390;2023-03-13T19:22:21;6.50;;;2.50;;
44732;SDS011;30460;50.836;4.390;2023-03-13T19:24:48;7.60;;;2.47;;
44732;SDS011;30460;50.836;4.390;2023-03-13T19:27:14;6.97;;;2.60;;
44732;SDS011;30460;50.836;4.390;2023-03-13T19:29:41;8.03;;;2.70;;
44732;SDS011;30460;50.836;4.390;2023-03-13T19:32:12;6.43;;;3.00;;
44732;SDS011;30460;50.836;4.390;2023-03-13T19:34:38;5.20;;;2.73;;
44732;SDS011;30460;50.836;4.390;2023-03-13T19:37:04;6.10;;;2.97;;
44732;SDS011;30460;50.836;4.390;2023-03-13T19:39:30;6.37;;;3.60;;
44732;SDS011;30460;50.836;4.390;2023-03-13T19:41:58;6.37;;;2.50;;
44732;SDS011;30460;50.836;4.390;2023-03-13T19:44:24;9.43;;;2.67;;
44732;SDS011;30460;50.836;4.390;2023-03-13T19:46:50;6.17;;;2.20;;
44732;SDS011;30460;50.836;4.390;2023-03-13T19:49:18;3.23;;;2.07;;
44732;SDS011;30460;50.836;4.390;2023-03-13T19:51:45;7.67;;;2.97;;
44732;SDS011;30460;50.836;4.390;2023-03-13T19:54:13;7.37;;;3.00;;
44732;SDS011;30460;50.836;4.390;2023-03-13T19:56:39;6.00;;;2.60;;
44732;SDS011;30460;50.836;4.390;2023-03-13T19:59:17;8.77;;;2.87;;
44732;SDS011;30460;50.836;4.390;2023-03-13T20:01:44;6.53;;;2.47;;
44732;SDS011;30460;50.836;4.390;2023-03-13T20:04:10;7.47;;;2.80;;
44732;SDS011;30460;50.836;4.390;2023-03-13T20:06:37;7.07;;;3.00;;
44732;SDS011;30460;50.836;4.390;2023-03-13T20:09:05;11.00;;;3.20;;
44732;SDS011;30460;50.836;4.390;2023-03-13T20:11:32;5.07;;;2.73;;
44732;SDS011;30460;50.836;4.390;2023-03-13T20:13:58;7.47;;;3.00;;
44732;SDS011;30460;50.836;4.390;2023-03-13T20:16:24;7.10;;;2.77;;
44732;SDS011;30460;50.836;4.390;2023-03-13T20:18:53;13.77;;;6.90;;
44732;SDS011;30460;50.836;4.390;2023-03-13T20:21:22;8.87;;;3.33;;
44732;SDS011;30460;50.836;4.390;2023-03-13T20:23:48;8.27;;;3.07;;
44732;SDS011;30460;50.836;4.390;2023-03-13T20:26:16;8.17;;;3.40;;
44732;SDS011;30460;50.836;4.390;2023-03-13T20:28:45;7.43;;;3.40;;
44732;SDS011;30460;50.836;4.390;2023-03-13T20:31:11;7.27;;;2.90;;
44732;SDS011;30460;50.836;4.390;2023-03-13T20:33:38;7.77;;;4.00;;
44732;SDS011;30460;50.836;4.390;2023-03-13T20:36:08;10.03;;;3.37;;
44732;SDS011;30460;50.836;4.390;2023-03-13T20:38:34;7.20;;;3.33;;
44732;SDS011;30460;50.836;4.390;2023-03-13T20:41:01;4.83;;;2.27;;
44732;SDS011;30460;50.836;4.390;2023-03-13T20:43:27;7.03;;;2.83;;
44732;SDS011;30460;50.836;4.390;2023-03-13T20:45:53;6.77;;;2.93;;
44732;SDS011;30460;50.836;4.390;2023-03-13T20:48:19;7.10;;;2.77;;
44732;SDS011;30460;50.836;4.390;2023-03-13T20:50:48;6.47;;;2.70;;
44732;SDS011;30460;50.836;4.390;2023-03-13T20:53:19;8.90;;;2.90;;
44732;SDS011;30460;50.836;4.390;2023-03-13T20:55:45;7.93;;;2.80;;
44732;SDS011;30460;50.836;4.390;2023-03-13T20:58:12;5.10;;;2.40;;
44732;SDS011;30460;50.836;4.390;2023-03-13T21:00:40;7.70;;;2.50;;
44732;SDS011;30460;50.836;4.390;2023-03-13T21:03:06;7.33;;;2.77;;
44732;SDS011;30460;50.836;4.390;2023-03-13T21:05:32;6.10;;;2.50;;
44732;SDS011;30460;50.836;4.390;2023-03-13T21:07:58;5.53;;;2.53;;
44732;SDS011;30460;50.836;4.390;2023-03-13T21:10:24;7.63;;;2.57;;
